createdAt,value
2019-02-05T00:00:46.711Z,1.70
2019-02-05T00:03:27.801Z,1.70
2019-02-05T00:06:08.311Z,1.70
2019-02-05T00:08:49.093Z,1.70
2019-02-05T00:11:31.725Z,1.70
2019-02-05T00:14:12.212Z,1.70
2019-02-05T00:16:53.066Z,1.70
2019-02-05T00:19:35.923Z,1.60
2019-02-05T00:22:16.565Z,1.60
2019-02-05T00:24:57.050Z,1.60
2019-02-05T00:27:37.718Z,1.60
2019-02-05T00:30:18.151Z,1.60
2019-02-05T00:32:59.548Z,1.60
2019-02-05T00:35:39.891Z,1.60
2019-02-05T00:38:20.779Z,1.70
2019-02-05T00:41:04.697Z,1.70
2019-02-05T00:43:45.711Z,1.60
2019-02-05T00:46:28.730Z,1.70
2019-02-05T00:49:09.277Z,1.70
2019-02-05T00:51:50.139Z,1.60
2019-02-05T00:54:31.213Z,1.60
2019-02-05T00:57:12.931Z,1.60
2019-02-05T00:59:54.084Z,1.60
2019-02-05T01:02:34.708Z,1.60
2019-02-05T01:05:15.563Z,1.60
2019-02-05T01:07:56.318Z,1.50
2019-02-05T01:10:37.230Z,1.50
2019-02-05T01:13:18.098Z,1.60
2019-02-05T01:15:58.862Z,1.60
2019-02-05T01:18:39.861Z,1.60
2019-02-05T01:21:23.004Z,1.60
2019-02-05T01:24:06.399Z,1.60
2019-02-05T01:26:47.329Z,1.60
2019-02-05T01:29:32.357Z,1.60
2019-02-05T01:32:13.080Z,1.60
2019-02-05T01:34:57.453Z,1.60
2019-02-05T01:37:40.068Z,1.50
2019-02-05T01:40:21.375Z,1.50
2019-02-05T01:43:02.226Z,1.50
2019-02-05T01:45:42.997Z,1.40
2019-02-05T01:48:23.694Z,1.40
2019-02-05T01:51:04.390Z,1.30
2019-02-05T01:53:44.651Z,1.40
2019-02-05T01:56:27.166Z,1.30
2019-02-05T01:59:08.191Z,1.30
2019-02-05T02:01:50.912Z,1.30
2019-02-05T02:04:32.687Z,1.30
2019-02-05T02:07:13.507Z,1.40
2019-02-05T02:09:53.793Z,1.30
2019-02-05T02:12:34.702Z,1.30
2019-02-05T02:15:15.610Z,1.30
2019-02-05T02:17:55.921Z,1.30
2019-02-05T02:20:36.733Z,1.20
2019-02-05T02:23:17.580Z,1.20
2019-02-05T02:25:58.241Z,1.20
2019-02-05T02:28:38.842Z,1.20
2019-02-05T02:31:19.860Z,1.20
2019-02-05T02:34:03.166Z,1.20
2019-02-05T02:36:43.942Z,1.20
2019-02-05T02:39:26.840Z,1.20
2019-02-05T02:42:07.633Z,1.20
2019-02-05T02:44:47.858Z,1.10
2019-02-05T02:47:28.215Z,1.20
2019-02-05T02:50:08.968Z,1.10
2019-02-05T02:52:51.558Z,1.10
2019-02-05T02:55:32.905Z,1.10
2019-02-05T02:58:13.704Z,1.20
2019-02-05T03:00:54.747Z,1.20
2019-02-05T03:03:35.075Z,1.20
2019-02-05T03:06:15.891Z,1.20
2019-02-05T03:08:56.848Z,1.20
2019-02-05T03:11:37.486Z,1.20
2019-02-05T03:14:18.546Z,1.10
2019-02-05T03:16:59.449Z,1.00
2019-02-05T03:19:40.582Z,1.00
2019-02-05T03:22:21.574Z,1.00
2019-02-05T03:25:05.265Z,1.00
2019-02-05T03:27:46.948Z,1.00
2019-02-05T03:30:27.937Z,1.00
2019-02-05T03:33:08.706Z,1.00
2019-02-05T03:35:50.401Z,0.90
2019-02-05T03:38:33.894Z,0.90
2019-02-05T03:41:14.607Z,0.90
2019-02-05T03:43:55.684Z,0.90
2019-02-05T03:46:37.602Z,0.80
2019-02-05T03:49:18.804Z,0.80
2019-02-05T03:51:59.739Z,0.90
2019-02-05T03:54:41.453Z,1.00
2019-02-05T03:57:30.632Z,0.90
2019-02-05T04:00:06.014Z,0.90
2019-02-05T04:02:46.572Z,0.80
2019-02-05T04:05:28.694Z,0.80
2019-02-05T04:08:11.392Z,0.80
2019-02-05T04:10:53.093Z,0.80
2019-02-05T04:13:33.544Z,0.80
2019-02-05T04:16:14.275Z,0.80
2019-02-05T04:18:55.103Z,0.70
2019-02-05T04:21:37.080Z,0.70
2019-02-05T04:24:17.876Z,0.70
2019-02-05T04:26:59.027Z,0.70
2019-02-05T04:29:40.019Z,0.70
2019-02-05T04:32:21.638Z,0.70
2019-02-05T04:35:02.283Z,0.70
2019-02-05T04:37:42.902Z,0.70
2019-02-05T04:40:24.399Z,0.70
2019-02-05T04:43:05.254Z,0.70
2019-02-05T04:45:46.698Z,0.70
2019-02-05T04:48:27.533Z,0.70
2019-02-05T04:51:08.115Z,0.70
2019-02-05T04:53:48.692Z,0.70
2019-02-05T04:56:29.530Z,0.60
2019-02-05T04:59:10.811Z,0.60
2019-02-05T05:01:51.634Z,0.70
2019-02-05T05:04:33.196Z,0.70
2019-02-05T05:07:14.784Z,0.60
2019-02-05T05:09:55.959Z,0.50
2019-02-05T05:12:36.981Z,0.60
2019-02-05T05:15:18.015Z,0.40
2019-02-05T05:17:59.152Z,0.30
2019-02-05T05:20:39.995Z,0.10
2019-02-05T05:23:20.656Z,-0.10
2019-02-05T05:26:01.348Z,-0.10
2019-02-05T05:28:42.506Z,0.20
2019-02-05T05:31:23.032Z,0.20
2019-02-05T05:34:03.957Z,0.40
2019-02-05T05:36:46.215Z,0.50
2019-02-05T05:39:27.351Z,0.50
2019-02-05T05:42:09.183Z,0.50
2019-02-05T05:44:49.852Z,0.40
2019-02-05T05:47:30.361Z,0.40
2019-02-05T05:50:11.523Z,0.40
2019-02-05T05:52:52.659Z,0.20
2019-02-05T05:55:32.971Z,-0.10
2019-02-05T05:58:22.349Z,-0.10
2019-02-05T06:00:57.358Z,0.00
2019-02-05T06:03:37.818Z,0.20
2019-02-05T06:06:18.354Z,0.30
2019-02-05T06:08:59.098Z,0.30
2019-02-05T06:11:39.656Z,0.30
2019-02-05T06:14:21.704Z,0.20
2019-02-05T06:17:02.820Z,0.10
2019-02-05T06:19:43.168Z,-0.20
2019-02-05T06:22:26.516Z,-0.20
2019-02-05T06:25:09.009Z,-0.30
2019-02-05T06:27:51.399Z,-0.50
2019-02-05T06:30:33.953Z,-0.60
2019-02-05T06:33:15.466Z,-0.40
2019-02-05T06:35:58.566Z,-0.50
2019-02-05T06:38:40.756Z,-0.60
2019-02-05T06:41:23.711Z,-0.40
2019-02-05T06:44:06.048Z,-0.60
2019-02-05T06:46:48.233Z,-0.60
2019-02-05T06:49:28.813Z,-0.50
2019-02-05T06:52:09.508Z,-0.60
2019-02-05T06:54:50.268Z,-0.60
2019-02-05T06:57:31.136Z,-0.60
2019-02-05T07:00:11.395Z,-0.40
2019-02-05T07:02:53.024Z,-0.30
2019-02-05T07:05:35.386Z,-0.20
2019-02-05T07:08:17.679Z,-0.30
2019-02-05T07:11:00.175Z,-0.50
2019-02-05T07:13:41.602Z,-0.60
2019-02-05T07:16:23.617Z,-0.60
2019-02-05T07:19:05.262Z,-0.60
2019-02-05T07:21:45.824Z,-0.70
2019-02-05T07:24:28.270Z,-0.80
2019-02-05T07:27:08.951Z,-0.80
2019-02-05T07:29:51.016Z,-0.60
2019-02-05T07:32:31.918Z,-0.70
2019-02-05T07:35:13.856Z,-0.40
2019-02-05T07:37:55.469Z,-0.30
2019-02-05T07:40:37.627Z,-0.10
2019-02-05T07:43:19.700Z,0.00
2019-02-05T07:46:00.358Z,0.00
2019-02-05T07:48:30.524Z,0.10
2019-02-05T07:51:19.529Z,0.20
2019-02-05T07:54:07.586Z,0.20
2019-02-05T07:57:09.086Z,0.20
2019-02-05T07:59:47.179Z,0.30
2019-02-05T08:02:55.625Z,0.30
2019-02-05T08:06:04.190Z,0.30
2019-02-05T08:08:52.232Z,0.30
2019-02-05T08:11:41.380Z,0.30
2019-02-05T08:14:23.487Z,0.40
2019-02-05T08:17:05.214Z,0.30
2019-02-05T08:19:45.832Z,0.30
2019-02-05T08:22:26.488Z,0.30
2019-02-05T08:25:07.115Z,0.30
2019-02-05T08:27:49.420Z,0.30
2019-02-05T08:30:30.266Z,0.40
2019-02-05T08:33:11.192Z,0.50
2019-02-05T08:35:53.282Z,0.40
2019-02-05T08:38:34.980Z,0.50
2019-02-05T08:41:15.336Z,0.60
2019-02-05T08:43:57.364Z,0.60
2019-02-05T08:46:38.441Z,0.70
2019-02-05T08:49:20.796Z,0.70
2019-02-05T08:52:02.394Z,0.70
2019-02-05T08:54:45.230Z,0.70
2019-02-05T08:57:27.003Z,0.80
2019-02-05T09:00:08.974Z,0.80
2019-02-05T09:02:51.331Z,0.90
2019-02-05T09:05:31.534Z,0.90
2019-02-05T09:08:14.532Z,0.90
2019-02-05T09:10:56.399Z,0.90
2019-02-05T09:13:37.544Z,0.90
2019-02-05T09:16:20.795Z,0.90
2019-02-05T09:21:41.059Z,0.90
2019-02-05T09:24:22.137Z,1.10
2019-02-05T09:27:03.022Z,1.10
2019-02-05T09:29:44.083Z,1.10
2019-02-05T09:32:25.876Z,1.10
2019-02-05T09:35:08.258Z,1.20
2019-02-05T09:37:49.157Z,1.30
2019-02-05T09:40:30.541Z,1.20
2019-02-05T09:43:11.686Z,1.30
2019-02-05T09:45:53.600Z,1.30
2019-02-05T09:48:35.889Z,1.30
2019-02-05T09:51:17.099Z,1.30
2019-02-05T09:54:00.879Z,1.40
2019-02-05T09:56:42.729Z,1.40
2019-02-05T09:59:23.558Z,1.40
2019-02-05T10:02:04.921Z,1.40
2019-02-05T10:07:34.799Z,1.50
2019-02-05T10:10:16.719Z,1.60
2019-02-05T10:15:43.990Z,1.70
2019-02-05T10:21:37.559Z,1.80
2019-02-05T10:24:18.300Z,1.80
2019-02-05T10:26:58.786Z,1.90
2019-02-05T10:29:39.278Z,1.80
2019-02-05T10:32:20.792Z,1.80
2019-02-05T10:35:02.139Z,1.90
2019-02-05T10:37:42.962Z,2.00
2019-02-05T10:40:24.892Z,2.10
2019-02-05T10:43:05.150Z,2.00
2019-02-05T10:45:45.620Z,2.10
2019-02-05T10:48:26.915Z,2.20
2019-02-05T10:51:08.008Z,2.20
2019-02-05T10:53:49.351Z,2.20
2019-02-05T10:56:30.032Z,2.20
2019-02-05T10:59:10.897Z,2.20
2019-02-05T11:01:51.557Z,2.20
2019-02-05T11:04:32.258Z,2.20
2019-02-05T11:07:12.993Z,2.30
2019-02-05T11:09:53.822Z,2.30
2019-02-05T11:12:37.631Z,2.50
2019-02-05T11:15:18.733Z,2.40
2019-02-05T11:17:59.829Z,2.40
2019-02-05T11:20:40.856Z,2.60
2019-02-05T11:23:22.100Z,2.70
2019-02-05T11:26:02.901Z,2.70
2019-02-05T11:28:44.231Z,2.70
2019-02-05T11:31:25.102Z,2.70
2019-02-05T11:34:07.381Z,2.60
2019-02-05T11:36:48.190Z,2.60
2019-02-05T11:39:28.699Z,2.60
2019-02-05T11:42:09.588Z,2.80
2019-02-05T11:44:50.492Z,2.90
2019-02-05T11:47:31.571Z,3.00
2019-02-05T11:50:12.082Z,3.00
2019-02-05T11:52:53.117Z,3.00
2019-02-05T11:58:17.958Z,3.10
2019-02-05T12:01:00.234Z,3.10
2019-02-05T12:03:41.228Z,3.20
2019-02-05T12:06:21.907Z,3.10
2019-02-05T12:09:06.896Z,3.30
2019-02-05T12:11:48.111Z,3.40
2019-02-05T12:14:28.770Z,3.30
2019-02-05T12:17:10.429Z,3.40
2019-02-05T12:19:51.249Z,3.60
2019-02-05T12:22:32.062Z,3.70
2019-02-05T12:28:02.209Z,3.80
2019-02-05T12:30:45.516Z,3.80
2019-02-05T12:33:26.782Z,3.90
2019-02-05T12:36:07.935Z,4.10
2019-02-05T12:38:52.954Z,4.10
2019-02-05T12:41:33.700Z,4.00
2019-02-05T12:44:16.251Z,4.10
2019-02-05T12:46:57.298Z,4.20
2019-02-05T12:49:38.430Z,4.20
2019-02-05T12:52:19.327Z,4.30
2019-02-05T12:55:12.770Z,4.30
2019-02-05T12:57:44.966Z,4.40
2019-02-05T13:00:27.645Z,4.50
2019-02-05T13:03:09.366Z,4.50
2019-02-05T13:05:50.406Z,5.00
2019-02-05T13:11:35.619Z,4.90
2019-02-05T13:14:17.702Z,4.80
2019-02-05T13:16:58.538Z,4.70
2019-02-05T13:19:39.108Z,4.80
2019-02-05T13:22:20.127Z,4.80
2019-02-05T13:25:00.904Z,5.10
2019-02-05T13:27:41.542Z,5.10
2019-02-05T13:30:23.717Z,5.20
2019-02-05T13:33:05.143Z,5.30
2019-02-05T13:35:46.372Z,5.30
2019-02-05T13:38:26.730Z,5.30
2019-02-05T13:41:09.158Z,5.50
2019-02-05T13:43:51.532Z,5.60
2019-02-05T13:46:32.618Z,5.70
2019-02-05T13:49:01.054Z,5.70
2019-02-05T13:51:48.832Z,5.90
2019-02-05T13:54:36.884Z,6.10
2019-02-05T13:57:24.756Z,6.00
2019-02-05T14:00:34.339Z,5.80
2019-02-05T14:03:22.114Z,5.90
2019-02-05T14:06:29.066Z,6.00
2019-02-05T14:09:17.915Z,6.00
2019-02-05T14:12:06.087Z,6.20
2019-02-05T14:14:48.541Z,6.30
2019-02-05T14:17:29.177Z,6.20
2019-02-05T14:20:14.677Z,6.20
2019-02-05T14:22:57.089Z,6.20
2019-02-05T14:25:38.526Z,6.30
2019-02-05T14:28:19.282Z,6.20
2019-02-05T14:30:59.889Z,6.10
2019-02-05T14:33:43.800Z,6.30
2019-02-05T14:36:24.216Z,6.40
2019-02-05T14:39:05.283Z,6.50
2019-02-05T14:41:46.532Z,6.50
2019-02-05T14:44:27.254Z,6.70
2019-02-05T14:47:07.987Z,6.70
2019-02-05T14:49:50.048Z,6.50
2019-02-05T14:52:31.182Z,6.50
2019-02-05T14:55:11.500Z,6.50
2019-02-05T14:57:52.006Z,6.40
2019-02-05T15:00:32.429Z,6.40
2019-02-05T15:03:13.323Z,6.40
2019-02-05T15:05:54.667Z,6.40
2019-02-05T15:08:35.245Z,6.50
2019-02-05T15:11:17.569Z,6.50
2019-02-05T15:13:58.642Z,6.50
2019-02-05T15:16:40.204Z,6.40
2019-02-05T15:19:21.376Z,6.20
2019-02-05T15:22:01.685Z,6.30
2019-02-05T15:24:42.619Z,6.30
2019-02-05T15:27:23.424Z,6.30
2019-02-05T15:30:05.702Z,6.30
2019-02-05T15:32:47.914Z,6.40
2019-02-05T15:35:28.963Z,6.50
2019-02-05T15:38:11.198Z,6.40
2019-02-05T15:40:53.280Z,6.20
2019-02-05T15:43:35.585Z,6.00
2019-02-05T15:46:17.530Z,6.10
2019-02-05T15:49:00.181Z,6.10
2019-02-05T15:51:41.407Z,6.10
2019-02-05T15:54:21.955Z,6.10
2019-02-05T15:57:04.703Z,6.10
2019-02-05T16:02:30.603Z,6.00
2019-02-05T16:05:11.297Z,5.90
2019-02-05T16:07:51.845Z,5.90
2019-02-05T16:10:34.150Z,5.90
2019-02-05T16:16:07.246Z,5.80
2019-02-05T16:18:53.313Z,5.80
2019-02-05T16:21:33.022Z,5.70
2019-02-05T16:24:13.532Z,5.60
2019-02-05T16:26:55.499Z,5.60
2019-02-05T16:29:35.721Z,5.50
2019-02-05T16:32:17.897Z,5.30
2019-02-05T16:34:59.168Z,5.20
2019-02-05T16:37:40.450Z,5.00
2019-02-05T16:40:21.426Z,4.90
2019-02-05T16:45:54.256Z,4.80
2019-02-05T16:48:34.799Z,4.70
2019-02-05T16:51:15.406Z,4.50
2019-02-05T16:53:57.218Z,4.40
2019-02-05T16:56:38.614Z,4.40
2019-02-05T16:59:19.033Z,4.30
2019-02-05T17:02:01.278Z,4.10
2019-02-05T17:04:42.808Z,3.90
2019-02-05T17:07:24.385Z,3.80
2019-02-05T17:10:06.282Z,3.80
2019-02-05T17:12:47.353Z,3.70
2019-02-05T17:15:28.332Z,3.60
2019-02-05T17:18:09.057Z,3.50
2019-02-05T17:20:49.703Z,3.50
2019-02-05T17:23:32.261Z,3.40
2019-02-05T17:26:13.198Z,3.20
2019-02-05T17:28:53.726Z,3.20
2019-02-05T17:31:34.917Z,3.10
2019-02-05T17:34:16.558Z,3.10
2019-02-05T17:36:57.955Z,3.00
2019-02-05T17:39:39.140Z,2.90
2019-02-05T17:42:19.532Z,2.80
2019-02-05T17:45:00.923Z,2.70
2019-02-05T17:47:42.237Z,2.60
2019-02-05T17:50:23.618Z,2.60
2019-02-05T17:53:06.256Z,2.60
2019-02-05T17:55:47.246Z,2.50
2019-02-05T17:58:27.804Z,2.40
2019-02-05T18:01:09.926Z,2.40
2019-02-05T18:03:51.176Z,2.30
2019-02-05T18:06:32.463Z,2.30
2019-02-05T18:09:13.339Z,2.40
2019-02-05T18:11:53.953Z,2.20
2019-02-05T18:14:34.814Z,2.30
2019-02-05T18:17:15.330Z,2.20
2019-02-05T18:19:57.046Z,2.00
2019-02-05T18:22:38.167Z,1.90
2019-02-05T18:25:19.311Z,1.90
2019-02-05T18:28:00.600Z,1.80
2019-02-05T18:30:41.386Z,1.90
2019-02-05T18:33:22.426Z,1.90
2019-02-05T18:36:03.129Z,2.00
2019-02-05T18:38:43.415Z,2.00
2019-02-05T18:41:24.914Z,2.00
2019-02-05T18:44:06.178Z,1.80
2019-02-05T18:46:47.045Z,1.80
2019-02-05T18:49:30.282Z,1.70
2019-02-05T18:52:10.473Z,1.60
2019-02-05T18:54:51.826Z,1.70
2019-02-05T18:57:33.346Z,1.80
2019-02-05T19:00:13.819Z,1.90
2019-02-05T19:02:54.663Z,1.90
2019-02-05T19:05:35.455Z,1.80
2019-02-05T19:08:16.641Z,1.60
2019-02-05T19:10:58.174Z,1.50
2019-02-05T19:13:38.870Z,1.40
2019-02-05T19:16:19.967Z,1.40
2019-02-05T19:19:00.372Z,1.40
2019-02-05T19:21:43.812Z,1.30
2019-02-05T19:27:18.470Z,1.30
2019-02-05T19:29:58.731Z,1.30
2019-02-05T19:32:41.659Z,1.30
2019-02-05T19:35:22.527Z,1.30
2019-02-05T19:38:03.199Z,1.20
2019-02-05T19:40:43.926Z,1.40
2019-02-05T19:43:24.841Z,1.40
2019-02-05T19:46:29.741Z,1.40
2019-02-05T19:52:18.435Z,1.30
2019-02-05T19:54:59.395Z,1.20
2019-02-05T19:57:40.043Z,1.40
2019-02-05T20:00:22.166Z,1.50
2019-02-05T20:03:03.019Z,1.30
2019-02-05T20:05:44.183Z,1.30
2019-02-05T20:08:26.901Z,1.10
2019-02-05T20:11:08.365Z,1.10
2019-02-05T20:13:50.082Z,1.00
2019-02-05T20:16:30.892Z,0.90
2019-02-05T20:19:11.725Z,0.80
2019-02-05T20:21:53.267Z,0.70
2019-02-05T20:24:34.318Z,0.70
2019-02-05T20:27:15.385Z,0.70
2019-02-05T20:29:57.186Z,0.60
2019-02-05T20:32:37.883Z,0.60
2019-02-05T20:35:19.309Z,0.60
2019-02-05T20:38:01.098Z,0.70
2019-02-05T20:40:42.852Z,0.80
2019-02-05T20:43:23.624Z,0.60
2019-02-05T20:46:04.588Z,0.50
2019-02-05T20:48:45.815Z,0.40
2019-02-05T20:51:26.538Z,0.40
2019-02-05T20:54:07.295Z,0.50
2019-02-05T20:56:48.331Z,0.60
2019-02-05T20:59:30.448Z,0.40
2019-02-05T21:02:11.361Z,0.30
2019-02-05T21:04:53.529Z,0.40
2019-02-05T21:07:34.742Z,0.50
2019-02-05T21:10:15.077Z,0.50
2019-02-05T21:12:56.364Z,0.40
2019-02-05T21:18:23.107Z,0.20
2019-02-05T21:21:03.618Z,0.10
2019-02-05T21:23:44.593Z,0.10
2019-02-05T21:26:25.487Z,0.10
2019-02-05T21:29:05.940Z,0.40
2019-02-05T21:31:47.607Z,0.70
2019-02-05T21:34:28.348Z,0.60
2019-02-05T21:37:09.513Z,0.30
2019-02-05T21:40:01.757Z,0.10
2019-02-05T21:42:33.014Z,0.30
2019-02-05T21:45:13.766Z,0.40
2019-02-05T21:47:54.970Z,0.60
2019-02-05T21:50:35.245Z,0.80
2019-02-05T21:53:16.318Z,0.80
2019-02-05T21:55:57.614Z,0.70
2019-02-05T21:58:39.923Z,0.70
2019-02-05T22:01:21.418Z,0.60
2019-02-05T22:04:02.867Z,0.60
2019-02-05T22:06:43.355Z,0.90
2019-02-05T22:09:25.037Z,1.10
2019-02-05T22:12:05.706Z,1.10
2019-02-05T22:14:47.834Z,1.20
2019-02-05T22:17:29.087Z,1.20
2019-02-05T22:20:10.340Z,1.20
2019-02-05T22:22:56.052Z,1.20
2019-02-05T22:25:36.445Z,1.30
2019-02-05T22:28:20.662Z,1.30
2019-02-05T22:31:00.729Z,1.30
2019-02-05T22:33:41.344Z,1.30
2019-02-05T22:36:22.017Z,1.30
2019-02-05T22:39:05.133Z,1.30
2019-02-05T22:41:46.079Z,1.30
2019-02-05T22:44:26.681Z,1.20
2019-02-05T22:47:10.541Z,1.20
2019-02-05T22:49:51.695Z,1.20
2019-02-05T22:52:33.215Z,1.20
2019-02-05T22:55:14.603Z,1.20
2019-02-05T22:57:55.244Z,1.10
2019-02-05T23:00:37.534Z,1.10
2019-02-05T23:03:18.844Z,1.10
2019-02-05T23:05:59.867Z,1.10
2019-02-05T23:08:40.734Z,1.10
2019-02-05T23:11:24.049Z,1.10
2019-02-05T23:14:04.666Z,1.10
2019-02-05T23:19:29.534Z,1.10
2019-02-05T23:22:11.279Z,1.10
2019-02-05T23:24:52.608Z,1.00
2019-02-05T23:27:34.785Z,1.10
2019-02-05T23:30:15.608Z,1.10
2019-02-05T23:32:56.442Z,1.00
2019-02-05T23:35:37.213Z,1.10
2019-02-05T23:38:18.161Z,1.00
2019-02-05T23:40:58.542Z,1.00
2019-02-05T23:43:41.538Z,1.00
2019-02-05T23:46:24.822Z,1.00
2019-02-05T23:49:05.717Z,1.10
2019-02-05T23:51:47.545Z,1.10
2019-02-05T23:54:27.977Z,1.10
2019-02-05T23:57:11.009Z,1.10
2019-02-05T23:59:54.411Z,1.10
